sensor_id;sensor_type;location;lat;lon;timestamp;temperature;humidity
7254;DHT22;4060;49.186;9.226;2023-10-31T00:01:44;17.00;76.40
7254;DHT22;4060;49.186;9.226;2023-10-31T00:04:13;17.00;76.40
7254;DHT22;4060;49.186;9.226;2023-10-31T00:06:44;17.00;77.20
7254;DHT22;4060;49.186;9.226;2023-10-31T00:09:15;17.00;76.50
7254;DHT22;4060;49.186;9.226;2023-10-31T00:11:45;17.00;76.50
7254;DHT22;4060;49.186;9.226;2023-10-31T00:14:14;17.00;76.40
7254;DHT22;4060;49.186;9.226;2023-10-31T00:16:44;17.00;76.50
7254;DHT22;4060;49.186;9.226;2023-10-31T00:19:15;16.90;76.40
7254;DHT22;4060;49.186;9.226;2023-10-31T00:21:45;16.90;76.40
7254;DHT22;4060;49.186;9.226;2023-10-31T00:24:16;16.90;76.50
7254;DHT22;4060;49.186;9.226;2023-10-31T00:26:46;16.90;76.50
7254;DHT22;4060;49.186;9.226;2023-10-31T00:29:15;16.90;76.50
7254;DHT22;4060;49.186;9.226;2023-10-31T00:31:45;16.90;76.50
7254;DHT22;4060;49.186;9.226;2023-10-31T00:34:14;16.90;76.50
7254;DHT22;4060;49.186;9.226;2023-10-31T00:36:43;16.90;76.50
7254;DHT22;4060;49.186;9.226;2023-10-31T00:39:13;16.90;76.50
7254;DHT22;4060;49.186;9.226;2023-10-31T00:41:46;16.90;76.50
7254;DHT22;4060;49.186;9.226;2023-10-31T00:44:15;16.90;76.60
7254;DHT22;4060;49.186;9.226;2023-10-31T00:46:45;16.90;76.50
7254;DHT22;4060;49.186;9.226;2023-10-31T00:49:14;16.80;76.50
7254;DHT22;4060;49.186;9.226;2023-10-31T00:51:43;16.80;76.50
7254;DHT22;4060;49.186;9.226;2023-10-31T00:54:13;16.80;76.40
7254;DHT22;4060;49.186;9.226;2023-10-31T00:56:42;16.80;76.40
7254;DHT22;4060;49.186;9.226;2023-10-31T00:59:14;16.80;76.50
7254;DHT22;4060;49.186;9.226;2023-10-31T01:01:44;16.90;76.60
7254;DHT22;4060;49.186;9.226;2023-10-31T01:04:14;16.90;76.60
7254;DHT22;4060;49.186;9.226;2023-10-31T01:06:44;16.80;76.40
7254;DHT22;4060;49.186;9.226;2023-10-31T01:09:13;16.80;76.40
7254;DHT22;4060;49.186;9.226;2023-10-31T01:11:43;16.80;76.40
7254;DHT22;4060;49.186;9.226;2023-10-31T01:14:14;16.80;76.30
7254;DHT22;4060;49.186;9.226;2023-10-31T01:16:44;16.80;76.40
7254;DHT22;4060;49.186;9.226;2023-10-31T01:19:13;16.80;76.30
7254;DHT22;4060;49.186;9.226;2023-10-31T01:21:43;16.80;76.20
7254;DHT22;4060;49.186;9.226;2023-10-31T01:24:12;16.80;76.20
7254;DHT22;4060;49.186;9.226;2023-10-31T01:26:41;16.80;76.20
7254;DHT22;4060;49.186;9.226;2023-10-31T01:29:11;16.70;76.10
7254;DHT22;4060;49.186;9.226;2023-10-31T01:31:44;16.70;76.00
7254;DHT22;4060;49.186;9.226;2023-10-31T01:34:13;16.70;76.00
7254;DHT22;4060;49.186;9.226;2023-10-31T01:36:43;16.70;76.00
7254;DHT22;4060;49.186;9.226;2023-10-31T01:39:12;16.70;76.70
7254;DHT22;4060;49.186;9.226;2023-10-31T01:41:42;16.70;76.70
7254;DHT22;4060;49.186;9.226;2023-10-31T01:44:12;16.70;76.00
7254;DHT22;4060;49.186;9.226;2023-10-31T01:46:43;16.70;75.90
7254;DHT22;4060;49.186;9.226;2023-10-31T01:49:13;16.70;75.90
7254;DHT22;4060;49.186;9.226;2023-10-31T01:51:44;16.70;75.80
7254;DHT22;4060;49.186;9.226;2023-10-31T01:54:14;16.70;75.90
7254;DHT22;4060;49.186;9.226;2023-10-31T01:56:45;16.70;75.80
7254;DHT22;4060;49.186;9.226;2023-10-31T01:59:15;16.70;75.80
7254;DHT22;4060;49.186;9.226;2023-10-31T02:01:46;16.60;75.70
7254;DHT22;4060;49.186;9.226;2023-10-31T02:04:16;16.60;75.60
7254;DHT22;4060;49.186;9.226;2023-10-31T02:06:45;16.60;75.50
7254;DHT22;4060;49.186;9.226;2023-10-31T02:09:15;16.60;75.50
7254;DHT22;4060;49.186;9.226;2023-10-31T02:11:45;16.60;75.50
7254;DHT22;4060;49.186;9.226;2023-10-31T02:14:14;16.60;75.50
7254;DHT22;4060;49.186;9.226;2023-10-31T02:16:46;16.60;75.50
7254;DHT22;4060;49.186;9.226;2023-10-31T02:19:19;16.60;75.40
7254;DHT22;4060;49.186;9.226;2023-10-31T02:21:53;16.60;75.80
7254;DHT22;4060;49.186;9.226;2023-10-31T02:24:23;16.50;75.20
7254;DHT22;4060;49.186;9.226;2023-10-31T02:26:53;16.50;75.20
7254;DHT22;4060;49.186;9.226;2023-10-31T02:29:24;16.50;75.10
7254;DHT22;4060;49.186;9.226;2023-10-31T02:31:53;16.50;75.10
7254;DHT22;4060;49.186;9.226;2023-10-31T02:34:23;16.50;75.10
7254;DHT22;4060;49.186;9.226;2023-10-31T02:36:55;16.50;75.00
7254;DHT22;4060;49.186;9.226;2023-10-31T02:39:25;16.50;75.00
7254;DHT22;4060;49.186;9.226;2023-10-31T02:41:54;16.50;75.00
7254;DHT22;4060;49.186;9.226;2023-10-31T02:44:25;16.50;75.00
7254;DHT22;4060;49.186;9.226;2023-10-31T02:46:55;16.50;75.00
7254;DHT22;4060;49.186;9.226;2023-10-31T02:49:24;16.40;74.90
7254;DHT22;4060;49.186;9.226;2023-10-31T02:51:56;16.40;74.80
7254;DHT22;4060;49.186;9.226;2023-10-31T02:54:25;16.40;74.80
7254;DHT22;4060;49.186;9.226;2023-10-31T02:56:55;16.40;74.80
7254;DHT22;4060;49.186;9.226;2023-10-31T02:59:25;16.40;74.80
7254;DHT22;4060;49.186;9.226;2023-10-31T03:01:55;16.40;74.70
7254;DHT22;4060;49.186;9.226;2023-10-31T03:04:25;16.40;74.60
7254;DHT22;4060;49.186;9.226;2023-10-31T03:06:58;16.40;74.60
7254;DHT22;4060;49.186;9.226;2023-10-31T03:09:28;16.40;74.60
7254;DHT22;4060;49.186;9.226;2023-10-31T03:11:57;16.30;74.40
7254;DHT22;4060;49.186;9.226;2023-10-31T03:14:27;16.30;74.30
7254;DHT22;4060;49.186;9.226;2023-10-31T03:16:57;16.40;74.50
7254;DHT22;4060;49.186;9.226;2023-10-31T03:19:27;16.40;74.50
7254;DHT22;4060;49.186;9.226;2023-10-31T03:21:58;16.30;74.20
7254;DHT22;4060;49.186;9.226;2023-10-31T03:24:26;16.30;74.20
7254;DHT22;4060;49.186;9.226;2023-10-31T03:26:56;16.30;74.20
7254;DHT22;4060;49.186;9.226;2023-10-31T03:29:25;16.30;74.20
7254;DHT22;4060;49.186;9.226;2023-10-31T03:31:54;16.30;74.20
7254;DHT22;4060;49.186;9.226;2023-10-31T03:34:24;16.30;74.20
7254;DHT22;4060;49.186;9.226;2023-10-31T03:36:53;16.30;74.10
7254;DHT22;4060;49.186;9.226;2023-10-31T03:39:24;16.30;74.20
7254;DHT22;4060;49.186;9.226;2023-10-31T03:41:54;16.20;74.00
7254;DHT22;4060;49.186;9.226;2023-10-31T03:44:23;16.20;73.90
7254;DHT22;4060;49.186;9.226;2023-10-31T03:46:53;16.20;73.90
7254;DHT22;4060;49.186;9.226;2023-10-31T03:49:23;16.20;73.90
7254;DHT22;4060;49.186;9.226;2023-10-31T03:51:53;16.20;73.80
7254;DHT22;4060;49.186;9.226;2023-10-31T03:54:24;16.20;73.90
7254;DHT22;4060;49.186;9.226;2023-10-31T03:56:54;16.20;73.90
7254;DHT22;4060;49.186;9.226;2023-10-31T03:59:23;16.20;73.90
7254;DHT22;4060;49.186;9.226;2023-10-31T04:01:53;16.10;73.70
7254;DHT22;4060;49.186;9.226;2023-10-31T04:04:23;16.10;73.70
7254;DHT22;4060;49.186;9.226;2023-10-31T04:06:53;16.10;73.70
7254;DHT22;4060;49.186;9.226;2023-10-31T04:09:24;16.10;73.70
7254;DHT22;4060;49.186;9.226;2023-10-31T04:11:53;16.10;73.70
7254;DHT22;4060;49.186;9.226;2023-10-31T04:14:23;16.10;73.70
7254;DHT22;4060;49.186;9.226;2023-10-31T04:16:53;16.10;73.70
7254;DHT22;4060;49.186;9.226;2023-10-31T04:19:22;16.10;73.70
7254;DHT22;4060;49.186;9.226;2023-10-31T04:21:53;16.10;73.70
7254;DHT22;4060;49.186;9.226;2023-10-31T04:24:25;16.00;73.60
7254;DHT22;4060;49.186;9.226;2023-10-31T04:26:56;16.10;73.70
7254;DHT22;4060;49.186;9.226;2023-10-31T04:29:26;16.00;73.60
7254;DHT22;4060;49.186;9.226;2023-10-31T04:31:56;16.00;73.60
7254;DHT22;4060;49.186;9.226;2023-10-31T04:34:25;16.00;73.60
7254;DHT22;4060;49.186;9.226;2023-10-31T04:36:55;16.00;73.70
7254;DHT22;4060;49.186;9.226;2023-10-31T04:39:27;16.00;73.60
7254;DHT22;4060;49.186;9.226;2023-10-31T04:41:57;16.00;73.60
7254;DHT22;4060;49.186;9.226;2023-10-31T04:44:28;16.00;73.60
7254;DHT22;4060;49.186;9.226;2023-10-31T04:46:57;16.00;73.60
7254;DHT22;4060;49.186;9.226;2023-10-31T04:49:27;15.90;73.50
7254;DHT22;4060;49.186;9.226;2023-10-31T04:51:57;15.90;73.50
7254;DHT22;4060;49.186;9.226;2023-10-31T04:54:30;15.90;73.50
7254;DHT22;4060;49.186;9.226;2023-10-31T04:57:00;15.90;73.50
7254;DHT22;4060;49.186;9.226;2023-10-31T04:59:31;15.90;73.50
7254;DHT22;4060;49.186;9.226;2023-10-31T05:02:00;15.90;73.50
7254;DHT22;4060;49.186;9.226;2023-10-31T05:04:30;15.90;73.50
7254;DHT22;4060;49.186;9.226;2023-10-31T05:06:59;15.90;73.40
7254;DHT22;4060;49.186;9.226;2023-10-31T05:09:32;15.90;73.50
7254;DHT22;4060;49.186;9.226;2023-10-31T05:12:01;15.90;73.40
7254;DHT22;4060;49.186;9.226;2023-10-31T05:14:31;15.90;73.40
7254;DHT22;4060;49.186;9.226;2023-10-31T05:17:01;15.80;73.30
7254;DHT22;4060;49.186;9.226;2023-10-31T05:19:30;15.80;73.30
7254;DHT22;4060;49.186;9.226;2023-10-31T05:22:00;15.90;73.40
7254;DHT22;4060;49.186;9.226;2023-10-31T05:24:33;15.80;73.40
7254;DHT22;4060;49.186;9.226;2023-10-31T05:27:04;15.90;73.40
7254;DHT22;4060;49.186;9.226;2023-10-31T05:29:35;15.80;73.30
7254;DHT22;4060;49.186;9.226;2023-10-31T05:32:05;15.80;73.30
7254;DHT22;4060;49.186;9.226;2023-10-31T05:34:35;15.80;73.30
7254;DHT22;4060;49.186;9.226;2023-10-31T05:37:05;15.80;73.20
7254;DHT22;4060;49.186;9.226;2023-10-31T05:39:36;15.80;73.20
7254;DHT22;4060;49.186;9.226;2023-10-31T05:42:05;15.80;73.10
7254;DHT22;4060;49.186;9.226;2023-10-31T05:44:35;15.80;73.10
7254;DHT22;4060;49.186;9.226;2023-10-31T05:47:04;15.80;73.10
7254;DHT22;4060;49.186;9.226;2023-10-31T05:49:34;15.70;73.10
7254;DHT22;4060;49.186;9.226;2023-10-31T05:52:04;15.80;73.10
7254;DHT22;4060;49.186;9.226;2023-10-31T05:54:37;15.70;72.90
7254;DHT22;4060;49.186;9.226;2023-10-31T05:57:07;15.70;72.90
7254;DHT22;4060;49.186;9.226;2023-10-31T05:59:36;15.70;72.90
7254;DHT22;4060;49.186;9.226;2023-10-31T06:02:06;15.70;73.00
7254;DHT22;4060;49.186;9.226;2023-10-31T06:04:36;15.70;72.90
7254;DHT22;4060;49.186;9.226;2023-10-31T06:07:07;15.70;72.90
7254;DHT22;4060;49.186;9.226;2023-10-31T06:09:39;15.70;72.90
7254;DHT22;4060;49.186;9.226;2023-10-31T06:12:09;15.70;73.00
7254;DHT22;4060;49.186;9.226;2023-10-31T06:14:39;15.70;72.90
7254;DHT22;4060;49.186;9.226;2023-10-31T06:17:08;15.70;72.90
7254;DHT22;4060;49.186;9.226;2023-10-31T06:19:39;15.70;72.90
7254;DHT22;4060;49.186;9.226;2023-10-31T06:22:13;15.70;72.90
7254;DHT22;4060;49.186;9.226;2023-10-31T06:24:46;15.70;72.90
7254;DHT22;4060;49.186;9.226;2023-10-31T06:27:16;15.60;72.80
7254;DHT22;4060;49.186;9.226;2023-10-31T06:29:45;15.60;72.80
7254;DHT22;4060;49.186;9.226;2023-10-31T06:32:15;15.60;72.80
7254;DHT22;4060;49.186;9.226;2023-10-31T06:34:45;15.60;72.80
7254;DHT22;4060;49.186;9.226;2023-10-31T06:37:15;15.60;72.80
7254;DHT22;4060;49.186;9.226;2023-10-31T06:39:45;15.60;72.80
7254;DHT22;4060;49.186;9.226;2023-10-31T06:42:15;15.60;72.80
7254;DHT22;4060;49.186;9.226;2023-10-31T06:44:45;15.60;72.70
7254;DHT22;4060;49.186;9.226;2023-10-31T06:47:15;15.60;72.70
7254;DHT22;4060;49.186;9.226;2023-10-31T06:49:45;15.60;72.60
7254;DHT22;4060;49.186;9.226;2023-10-31T06:52:14;15.60;72.60
7254;DHT22;4060;49.186;9.226;2023-10-31T06:54:46;15.60;72.60
7254;DHT22;4060;49.186;9.226;2023-10-31T06:57:18;15.60;72.60
7254;DHT22;4060;49.186;9.226;2023-10-31T06:59:47;15.50;72.50
7254;DHT22;4060;49.186;9.226;2023-10-31T07:02:17;15.50;72.50
7254;DHT22;4060;49.186;9.226;2023-10-31T07:04:47;15.50;72.50
7254;DHT22;4060;49.186;9.226;2023-10-31T07:07:17;15.50;72.50
7254;DHT22;4060;49.186;9.226;2023-10-31T07:09:49;15.50;72.40
7254;DHT22;4060;49.186;9.226;2023-10-31T07:12:18;15.50;72.50
7254;DHT22;4060;49.186;9.226;2023-10-31T07:14:48;15.50;72.40
7254;DHT22;4060;49.186;9.226;2023-10-31T07:17:17;15.50;72.40
7254;DHT22;4060;49.186;9.226;2023-10-31T07:19:47;15.50;72.40
7254;DHT22;4060;49.186;9.226;2023-10-31T07:22:17;15.50;72.40
7254;DHT22;4060;49.186;9.226;2023-10-31T07:24:50;15.50;72.40
7254;DHT22;4060;49.186;9.226;2023-10-31T07:27:20;15.50;72.40
7254;DHT22;4060;49.186;9.226;2023-10-31T07:29:51;15.50;72.40
7254;DHT22;4060;49.186;9.226;2023-10-31T07:32:21;15.50;72.30
7254;DHT22;4060;49.186;9.226;2023-10-31T07:34:51;15.50;72.30
7254;DHT22;4060;49.186;9.226;2023-10-31T07:37:21;15.50;72.30
7254;DHT22;4060;49.186;9.226;2023-10-31T07:39:52;15.50;72.30
7254;DHT22;4060;49.186;9.226;2023-10-31T07:42:22;15.50;72.30
7254;DHT22;4060;49.186;9.226;2023-10-31T07:44:51;15.50;72.30
7254;DHT22;4060;49.186;9.226;2023-10-31T07:47:20;15.50;72.30
7254;DHT22;4060;49.186;9.226;2023-10-31T07:49:50;15.50;72.30
7254;DHT22;4060;49.186;9.226;2023-10-31T07:52:25;15.50;72.30
7254;DHT22;4060;49.186;9.226;2023-10-31T07:54:57;15.40;72.10
7254;DHT22;4060;49.186;9.226;2023-10-31T07:57:26;15.40;72.10
7254;DHT22;4060;49.186;9.226;2023-10-31T07:59:56;15.40;72.10
7254;DHT22;4060;49.186;9.226;2023-10-31T08:02:25;15.40;72.20
7254;DHT22;4060;49.186;9.226;2023-10-31T08:04:55;15.40;72.30
7254;DHT22;4060;49.186;9.226;2023-10-31T08:07:25;15.40;72.20
7254;DHT22;4060;49.186;9.226;2023-10-31T08:09:59;15.40;72.20
7254;DHT22;4060;49.186;9.226;2023-10-31T08:12:28;15.40;72.20
7254;DHT22;4060;49.186;9.226;2023-10-31T08:14:57;15.40;72.20
7254;DHT22;4060;49.186;9.226;2023-10-31T08:17:27;15.40;72.20
7254;DHT22;4060;49.186;9.226;2023-10-31T08:19:57;15.40;72.20
7254;DHT22;4060;49.186;9.226;2023-10-31T08:22:26;15.40;72.20
7254;DHT22;4060;49.186;9.226;2023-10-31T08:24:58;15.40;72.30
7254;DHT22;4060;49.186;9.226;2023-10-31T08:27:28;15.40;72.30
7254;DHT22;4060;49.186;9.226;2023-10-31T08:29:58;15.40;72.30
7254;DHT22;4060;49.186;9.226;2023-10-31T08:32:28;15.40;72.30
7254;DHT22;4060;49.186;9.226;2023-10-31T08:34:57;15.40;72.30
7254;DHT22;4060;49.186;9.226;2023-10-31T08:37:28;15.40;72.30
7254;DHT22;4060;49.186;9.226;2023-10-31T08:39:59;15.40;72.40
7254;DHT22;4060;49.186;9.226;2023-10-31T08:42:31;15.40;72.40
7254;DHT22;4060;49.186;9.226;2023-10-31T08:45:01;15.40;72.40
7254;DHT22;4060;49.186;9.226;2023-10-31T08:47:31;15.40;72.40
7254;DHT22;4060;49.186;9.226;2023-10-31T08:50:01;15.40;73.00
7254;DHT22;4060;49.186;9.226;2023-10-31T08:52:32;15.40;72.50
7254;DHT22;4060;49.186;9.226;2023-10-31T08:55:05;15.40;72.50
7254;DHT22;4060;49.186;9.226;2023-10-31T08:57:35;15.40;72.60
7254;DHT22;4060;49.186;9.226;2023-10-31T09:00:06;15.40;72.60
7254;DHT22;4060;49.186;9.226;2023-10-31T09:02:36;15.40;72.60
7254;DHT22;4060;49.186;9.226;2023-10-31T09:05:05;15.40;72.60
7254;DHT22;4060;49.186;9.226;2023-10-31T09:07:35;15.40;72.50
7254;DHT22;4060;49.186;9.226;2023-10-31T09:10:07;15.40;72.60
7254;DHT22;4060;49.186;9.226;2023-10-31T09:12:37;15.40;72.60
7254;DHT22;4060;49.186;9.226;2023-10-31T09:15:07;15.40;72.60
7254;DHT22;4060;49.186;9.226;2023-10-31T09:17:38;15.40;72.60
7254;DHT22;4060;49.186;9.226;2023-10-31T09:20:08;15.40;72.60
7254;DHT22;4060;49.186;9.226;2023-10-31T09:22:38;15.40;72.70
7254;DHT22;4060;49.186;9.226;2023-10-31T09:25:09;15.40;72.60
7254;DHT22;4060;49.186;9.226;2023-10-31T09:27:41;15.40;72.70
7254;DHT22;4060;49.186;9.226;2023-10-31T09:30:11;15.40;72.70
7254;DHT22;4060;49.186;9.226;2023-10-31T09:32:40;15.40;72.70
7254;DHT22;4060;49.186;9.226;2023-10-31T09:35:10;15.40;72.80
7254;DHT22;4060;49.186;9.226;2023-10-31T09:37:40;15.40;72.80
7254;DHT22;4060;49.186;9.226;2023-10-31T09:40:13;15.40;73.00
7254;DHT22;4060;49.186;9.226;2023-10-31T09:42:43;15.40;73.00
7254;DHT22;4060;49.186;9.226;2023-10-31T09:45:14;15.40;73.10
7254;DHT22;4060;49.186;9.226;2023-10-31T09:47:43;15.40;73.10
7254;DHT22;4060;49.186;9.226;2023-10-31T09:50:14;15.40;73.20
7254;DHT22;4060;49.186;9.226;2023-10-31T09:52:43;15.40;73.20
7254;DHT22;4060;49.186;9.226;2023-10-31T09:55:15;15.40;73.20
7254;DHT22;4060;49.186;9.226;2023-10-31T09:57:44;15.40;73.30
7254;DHT22;4060;49.186;9.226;2023-10-31T10:00:16;15.40;73.30
7254;DHT22;4060;49.186;9.226;2023-10-31T10:02:46;15.50;73.50
7254;DHT22;4060;49.186;9.226;2023-10-31T10:05:17;15.40;73.40
7254;DHT22;4060;49.186;9.226;2023-10-31T10:07:47;15.50;73.50
7254;DHT22;4060;49.186;9.226;2023-10-31T10:10:19;15.50;73.50
7254;DHT22;4060;49.186;9.226;2023-10-31T10:12:48;15.50;73.50
7254;DHT22;4060;49.186;9.226;2023-10-31T10:15:20;15.50;73.50
7254;DHT22;4060;49.186;9.226;2023-10-31T10:17:50;15.50;73.50
7254;DHT22;4060;49.186;9.226;2023-10-31T10:20:21;15.50;73.60
7254;DHT22;4060;49.186;9.226;2023-10-31T10:22:50;15.50;73.50
7254;DHT22;4060;49.186;9.226;2023-10-31T10:25:21;15.50;73.50
7254;DHT22;4060;49.186;9.226;2023-10-31T10:27:50;15.50;73.50
7254;DHT22;4060;49.186;9.226;2023-10-31T10:30:19;15.50;73.50
7254;DHT22;4060;49.186;9.226;2023-10-31T10:32:50;15.50;73.50
7254;DHT22;4060;49.186;9.226;2023-10-31T10:35:20;15.60;73.60
7254;DHT22;4060;49.186;9.226;2023-10-31T10:37:51;15.60;73.40
7254;DHT22;4060;49.186;9.226;2023-10-31T10:40:27;15.60;72.70
7254;DHT22;4060;49.186;9.226;2023-10-31T10:43:00;15.60;72.40
7254;DHT22;4060;49.186;9.226;2023-10-31T10:45:37;15.60;72.40
7254;DHT22;4060;49.186;9.226;2023-10-31T10:48:09;15.60;72.40
7254;DHT22;4060;49.186;9.226;2023-10-31T10:50:42;15.70;72.50
7254;DHT22;4060;49.186;9.226;2023-10-31T10:53:16;15.70;72.50
7254;DHT22;4060;49.186;9.226;2023-10-31T10:55:57;15.60;72.40
7254;DHT22;4060;49.186;9.226;2023-10-31T10:58:37;15.70;72.50
7254;DHT22;4060;49.186;9.226;2023-10-31T11:01:10;15.70;72.50
7254;DHT22;4060;49.186;9.226;2023-10-31T11:03:41;15.70;72.50
7254;DHT22;4060;49.186;9.226;2023-10-31T11:06:11;15.70;72.50
7254;DHT22;4060;49.186;9.226;2023-10-31T11:08:41;15.70;72.50
7254;DHT22;4060;49.186;9.226;2023-10-31T11:11:14;15.70;72.50
7254;DHT22;4060;49.186;9.226;2023-10-31T11:13:44;15.70;72.40
7254;DHT22;4060;49.186;9.226;2023-10-31T11:16:20;15.80;72.50
7254;DHT22;4060;49.186;9.226;2023-10-31T11:18:59;15.80;72.40
7254;DHT22;4060;49.186;9.226;2023-10-31T11:21:29;15.80;72.40
7254;DHT22;4060;49.186;9.226;2023-10-31T11:23:59;15.80;72.30
7254;DHT22;4060;49.186;9.226;2023-10-31T11:26:31;15.80;72.30
7254;DHT22;4060;49.186;9.226;2023-10-31T11:29:05;15.80;72.20
7254;DHT22;4060;49.186;9.226;2023-10-31T11:31:34;15.80;72.20
7254;DHT22;4060;49.186;9.226;2023-10-31T11:34:07;15.80;72.20
7254;DHT22;4060;49.186;9.226;2023-10-31T11:36:37;15.80;72.20
7254;DHT22;4060;49.186;9.226;2023-10-31T11:39:13;15.80;72.20
7254;DHT22;4060;49.186;9.226;2023-10-31T11:41:49;15.80;72.30
7254;DHT22;4060;49.186;9.226;2023-10-31T11:44:25;15.80;72.20
7254;DHT22;4060;49.186;9.226;2023-10-31T11:46:59;15.80;72.30
7254;DHT22;4060;49.186;9.226;2023-10-31T11:49:48;15.80;72.30
7254;DHT22;4060;49.186;9.226;2023-10-31T11:52:18;15.80;72.30
7254;DHT22;4060;49.186;9.226;2023-10-31T11:54:48;15.80;72.30
7254;DHT22;4060;49.186;9.226;2023-10-31T11:57:30;15.80;72.20
7254;DHT22;4060;49.186;9.226;2023-10-31T12:00:00;15.90;72.30
7254;DHT22;4060;49.186;9.226;2023-10-31T12:02:30;15.80;72.10
7254;DHT22;4060;49.186;9.226;2023-10-31T12:05:17;15.80;72.20
7254;DHT22;4060;49.186;9.226;2023-10-31T12:07:46;15.90;72.20
7254;DHT22;4060;49.186;9.226;2023-10-31T12:10:22;15.80;72.20
7254;DHT22;4060;49.186;9.226;2023-10-31T12:12:54;15.80;72.30
7254;DHT22;4060;49.186;9.226;2023-10-31T12:15:24;15.90;72.30
7254;DHT22;4060;49.186;9.226;2023-10-31T12:17:58;15.90;72.20
7254;DHT22;4060;49.186;9.226;2023-10-31T12:20:34;15.90;72.20
7254;DHT22;4060;49.186;9.226;2023-10-31T12:23:17;15.90;72.20
7254;DHT22;4060;49.186;9.226;2023-10-31T12:25:50;15.90;72.20
7254;DHT22;4060;49.186;9.226;2023-10-31T12:28:22;15.90;72.20
7254;DHT22;4060;49.186;9.226;2023-10-31T12:30:52;15.90;72.20
7254;DHT22;4060;49.186;9.226;2023-10-31T12:33:26;15.90;72.20
7254;DHT22;4060;49.186;9.226;2023-10-31T12:35:58;15.90;72.30
7254;DHT22;4060;49.186;9.226;2023-10-31T12:38:28;15.90;72.20
7254;DHT22;4060;49.186;9.226;2023-10-31T12:40:58;15.90;72.20
7254;DHT22;4060;49.186;9.226;2023-10-31T12:43:30;15.90;72.20
7254;DHT22;4060;49.186;9.226;2023-10-31T12:46:27;15.90;72.30
7254;DHT22;4060;49.186;9.226;2023-10-31T12:48:58;15.90;72.30
7254;DHT22;4060;49.186;9.226;2023-10-31T12:51:27;16.00;72.50
7254;DHT22;4060;49.186;9.226;2023-10-31T12:53:57;16.00;72.50
7254;DHT22;4060;49.186;9.226;2023-10-31T12:56:39;16.00;72.60
7254;DHT22;4060;49.186;9.226;2023-10-31T12:59:11;16.00;72.70
7254;DHT22;4060;49.186;9.226;2023-10-31T13:01:43;16.00;72.70
7254;DHT22;4060;49.186;9.226;2023-10-31T13:04:13;16.00;72.70
7254;DHT22;4060;49.186;9.226;2023-10-31T13:07:01;16.00;72.70
7254;DHT22;4060;49.186;9.226;2023-10-31T13:09:31;16.00;72.70
7254;DHT22;4060;49.186;9.226;2023-10-31T13:12:03;16.00;72.60
7254;DHT22;4060;49.186;9.226;2023-10-31T13:14:34;16.00;72.60
7254;DHT22;4060;49.186;9.226;2023-10-31T13:17:06;16.00;72.50
7254;DHT22;4060;49.186;9.226;2023-10-31T13:19:35;16.10;72.70
7254;DHT22;4060;49.186;9.226;2023-10-31T13:22:05;16.00;72.50
7254;DHT22;4060;49.186;9.226;2023-10-31T13:24:35;16.00;72.50
7254;DHT22;4060;49.186;9.226;2023-10-31T13:27:05;16.10;72.50
7254;DHT22;4060;49.186;9.226;2023-10-31T13:29:37;16.10;72.40
7254;DHT22;4060;49.186;9.226;2023-10-31T13:32:07;16.10;72.00
7254;DHT22;4060;49.186;9.226;2023-10-31T13:34:36;16.10;71.50
7254;DHT22;4060;49.186;9.226;2023-10-31T13:37:06;16.30;71.70
7254;DHT22;4060;49.186;9.226;2023-10-31T13:39:35;16.40;71.80
7254;DHT22;4060;49.186;9.226;2023-10-31T13:42:06;16.60;71.80
7254;DHT22;4060;49.186;9.226;2023-10-31T13:44:39;16.90;71.70
7254;DHT22;4060;49.186;9.226;2023-10-31T13:47:08;17.10;71.20
7254;DHT22;4060;49.186;9.226;2023-10-31T13:49:49;17.30;70.70
7254;DHT22;4060;49.186;9.226;2023-10-31T13:52:18;17.50;70.00
7254;DHT22;4060;49.186;9.226;2023-10-31T13:54:49;17.70;69.60
7254;DHT22;4060;49.186;9.226;2023-10-31T13:57:19;17.90;69.20
7254;DHT22;4060;49.186;9.226;2023-10-31T13:59:50;18.00;68.60
7254;DHT22;4060;49.186;9.226;2023-10-31T14:02:20;18.10;68.10
7254;DHT22;4060;49.186;9.226;2023-10-31T14:04:51;18.20;67.70
7254;DHT22;4060;49.186;9.226;2023-10-31T14:07:21;18.40;67.40
7254;DHT22;4060;49.186;9.226;2023-10-31T14:09:53;18.50;67.10
7254;DHT22;4060;49.186;9.226;2023-10-31T14:12:24;18.50;66.70
7254;DHT22;4060;49.186;9.226;2023-10-31T14:14:57;18.60;66.40
7254;DHT22;4060;49.186;9.226;2023-10-31T14:17:26;18.60;66.10
7254;DHT22;4060;49.186;9.226;2023-10-31T14:19:56;18.70;65.90
7254;DHT22;4060;49.186;9.226;2023-10-31T14:22:25;18.70;65.70
7254;DHT22;4060;49.186;9.226;2023-10-31T14:24:55;18.70;65.50
7254;DHT22;4060;49.186;9.226;2023-10-31T14:27:25;18.80;65.30
7254;DHT22;4060;49.186;9.226;2023-10-31T14:29:57;18.80;65.20
7254;DHT22;4060;49.186;9.226;2023-10-31T14:32:27;18.80;65.00
7254;DHT22;4060;49.186;9.226;2023-10-31T14:34:57;18.80;64.90
7254;DHT22;4060;49.186;9.226;2023-10-31T14:37:26;18.80;64.80
7254;DHT22;4060;49.186;9.226;2023-10-31T14:39:57;18.80;64.60
7254;DHT22;4060;49.186;9.226;2023-10-31T14:42:28;18.80;64.60
7254;DHT22;4060;49.186;9.226;2023-10-31T14:45:00;18.90;64.60
7254;DHT22;4060;49.186;9.226;2023-10-31T14:47:30;18.90;64.60
7254;DHT22;4060;49.186;9.226;2023-10-31T14:50:00;18.90;64.50
7254;DHT22;4060;49.186;9.226;2023-10-31T14:52:29;18.90;64.50
7254;DHT22;4060;49.186;9.226;2023-10-31T14:54:59;18.90;64.50
7254;DHT22;4060;49.186;9.226;2023-10-31T14:57:28;18.80;63.80
7254;DHT22;4060;49.186;9.226;2023-10-31T14:59:59;18.70;63.10
7254;DHT22;4060;49.186;9.226;2023-10-31T15:02:29;18.50;62.80
7254;DHT22;4060;49.186;9.226;2023-10-31T15:04:58;18.30;62.80
7254;DHT22;4060;49.186;9.226;2023-10-31T15:07:27;18.10;63.80
7254;DHT22;4060;49.186;9.226;2023-10-31T15:09:57;17.90;63.40
7254;DHT22;4060;49.186;9.226;2023-10-31T15:12:26;17.70;63.90
7254;DHT22;4060;49.186;9.226;2023-10-31T15:14:56;17.50;64.50
7254;DHT22;4060;49.186;9.226;2023-10-31T15:17:27;17.40;65.10
7254;DHT22;4060;49.186;9.226;2023-10-31T15:19:57;17.20;65.30
7254;DHT22;4060;49.186;9.226;2023-10-31T15:22:26;17.10;65.70
7254;DHT22;4060;49.186;9.226;2023-10-31T15:24:56;17.00;66.00
7254;DHT22;4060;49.186;9.226;2023-10-31T15:27:25;16.90;66.20
7254;DHT22;4060;49.186;9.226;2023-10-31T15:29:55;16.80;66.60
7254;DHT22;4060;49.186;9.226;2023-10-31T15:32:33;16.80;67.00
7254;DHT22;4060;49.186;9.226;2023-10-31T15:35:05;16.70;67.30
7254;DHT22;4060;49.186;9.226;2023-10-31T15:37:36;16.70;67.50
7254;DHT22;4060;49.186;9.226;2023-10-31T15:40:07;16.70;68.40
7254;DHT22;4060;49.186;9.226;2023-10-31T15:42:37;16.60;67.60
7254;DHT22;4060;49.186;9.226;2023-10-31T15:45:07;16.60;67.70
7254;DHT22;4060;49.186;9.226;2023-10-31T15:47:41;16.60;67.90
7254;DHT22;4060;49.186;9.226;2023-10-31T15:50:10;16.60;68.50
7254;DHT22;4060;49.186;9.226;2023-10-31T15:52:40;16.60;68.80
7254;DHT22;4060;49.186;9.226;2023-10-31T15:55:09;16.60;69.10
7254;DHT22;4060;49.186;9.226;2023-10-31T15:57:38;16.60;69.50
7254;DHT22;4060;49.186;9.226;2023-10-31T16:00:08;16.60;69.70
7254;DHT22;4060;49.186;9.226;2023-10-31T16:02:41;16.50;69.60
7254;DHT22;4060;49.186;9.226;2023-10-31T16:05:11;16.50;69.60
7254;DHT22;4060;49.186;9.226;2023-10-31T16:07:40;16.40;69.80
7254;DHT22;4060;49.186;9.226;2023-10-31T16:10:12;16.40;70.10
7254;DHT22;4060;49.186;9.226;2023-10-31T16:12:43;16.40;70.60
7254;DHT22;4060;49.186;9.226;2023-10-31T16:15:14;16.40;71.20
7254;DHT22;4060;49.186;9.226;2023-10-31T16:17:45;16.50;71.80
7254;DHT22;4060;49.186;9.226;2023-10-31T16:20:14;16.60;72.20
7254;DHT22;4060;49.186;9.226;2023-10-31T16:22:44;16.60;72.40
7254;DHT22;4060;49.186;9.226;2023-10-31T16:25:14;16.70;72.20